Time;durP1;ratioP1;P1;durP2;ratioP2;P2;SDS_P1;SDS_P2;PMS_P1;PMS_P2;Temp;Humidity;BMP_temperature;BMP_pressure;BME280_temperature;BME280_humidity;BME280_pressure;Samples;Min_cycle;Max_cycle;Signal;HPM_P1;HPM_P2
2022/08/08 00:02:28;;;;;;;7.68;7.03;;;;;;;;;;4996888;28;20696;-69
2022/08/08 00:05:06;;;;;;;7.68;7.00;;;;;;;;;;4995526;28;20023;-68
2022/08/08 00:07:31;;;;;;;8.25;7.53;;;;;;;;;;4997020;28;20141;-68
2022/08/08 00:10:05;;;;;;;7.93;7.32;;;;;;;;;;5000614;28;20032;-68
2022/08/08 00:12:34;;;;;;;8.95;8.25;;;;;;;;;;4996902;28;20030;-68
2022/08/08 00:15:02;;;;;;;8.35;7.50;;;;;;;;;;4995733;28;20583;-68
2022/08/08 00:17:37;;;;;;;9.10;7.78;;;;;;;;;;4999034;28;20022;-68
2022/08/08 00:20:05;;;;;;;8.30;7.45;;;;;;;;;;5002562;28;20030;-68
2022/08/08 00:22:45;;;;;;;8.70;8.00;;;;;;;;;;5003280;28;20490;-68
2022/08/08 00:25:13;;;;;;;7.95;7.35;;;;;;;;;;4996368;28;20084;-68
2022/08/08 00:27:39;;;;;;;8.88;8.00;;;;;;;;;;5000196;28;20025;-67
2022/08/08 00:30:06;;;;;;;8.43;7.72;;;;;;;;;;4996774;28;20054;-68
2022/08/08 00:32:39;;;;;;;7.85;7.25;;;;;;;;;;4997349;28;20108;-68
2022/08/08 00:35:23;;;;;;;7.45;6.95;;;;;;;;;;5004093;28;20379;-68
2022/08/08 00:37:48;;;;;;;8.63;7.88;;;;;;;;;;5003140;28;20030;-69
2022/08/08 00:40:16;;;;;;;8.35;7.57;;;;;;;;;;5003677;28;20087;-68
2022/08/08 00:42:56;;;;;;;7.65;7.05;;;;;;;;;;4998838;28;20163;-68
2022/08/08 00:45:48;;;;;;;8.13;7.43;;;;;;;;;;4998497;28;20359;-68
2022/08/08 00:48:48;;;;;;;9.57;8.80;;;;;;;;;;4895564;29;20037;-68
2022/08/08 00:51:32;;;;;;;8.43;7.70;;;;;;;;;;4881092;29;20028;-68
2022/08/08 00:54:17;;;;;;;9.27;8.48;;;;;;;;;;4877820;29;20129;-68
2022/08/08 00:57:00;;;;;;;8.65;7.88;;;;;;;;;;4877633;29;20649;-68
2022/08/08 00:59:28;;;;;;;8.93;8.23;;;;;;;;;;4878026;29;20648;-68
2022/08/08 01:02:12;;;;;;;9.00;8.25;;;;;;;;;;4884065;29;20032;-68
2022/08/08 01:05:02;;;;;;;9.27;8.45;;;;;;;;;;4885114;29;20126;-68
2022/08/08 01:07:45;;;;;;;8.25;7.32;;;;;;;;;;4884930;29;20050;-68
2022/08/08 01:10:17;;;;;;;7.78;7.28;;;;;;;;;;4878137;29;20279;-68
2022/08/08 01:12:53;;;;;;;7.78;7.07;;;;;;;;;;4876699;29;20037;-68
2022/08/08 01:15:21;;;;;;;9.80;7.43;;;;;;;;;;4881029;29;20048;-68
2022/08/08 01:17:49;;;;;;;8.05;7.47;;;;;;;;;;4876574;29;20427;-68
2022/08/08 01:20:33;;;;;;;10.57;8.00;;;;;;;;;;4883890;29;20037;-68
2022/08/08 01:22:58;;;;;;;8.48;7.82;;;;;;;;;;4870460;29;20111;-68
2022/08/08 01:25:37;;;;;;;7.60;6.90;;;;;;;;;;4935010;28;20041;-68
2022/08/08 01:28:07;;;;;;;8.77;8.18;;;;;;;;;;5000466;28;20026;-68
2022/08/08 01:31:02;;;;;;;7.53;6.88;;;;;;;;;;5003839;28;20105;-68
2022/08/08 01:33:39;;;;;;;7.95;7.15;;;;;;;;;;4902126;29;20127;-68
2022/08/08 01:36:25;;;;;;;8.18;7.47;;;;;;;;;;4908530;29;20034;-68
2022/08/08 01:38:56;;;;;;;7.72;6.90;;;;;;;;;;4903407;29;20036;-68
2022/08/08 01:41:24;;;;;;;8.52;7.75;;;;;;;;;;4909851;29;20454;-68
2022/08/08 01:43:55;;;;;;;9.93;8.60;;;;;;;;;;4910832;29;20099;-68
2022/08/08 01:46:30;;;;;;;10.02;8.98;;;;;;;;;;4905641;29;20777;-68
2022/08/08 01:48:55;;;;;;;10.63;7.65;;;;;;;;;;4904981;29;20035;-68
2022/08/08 01:51:31;;;;;;;11.85;7.75;;;;;;;;;;4906036;29;20072;-68
2022/08/08 01:54:14;;;;;;;7.88;7.28;;;;;;;;;;4902239;29;20036;-68
2022/08/08 01:56:58;;;;;;;8.77;7.35;;;;;;;;;;4909602;29;20048;-68
2022/08/08 01:59:29;;;;;;;7.57;6.88;;;;;;;;;;4911856;29;20597;-68
2022/08/08 02:02:13;;;;;;;7.93;6.30;;;;;;;;;;4908642;29;20063;-68
2022/08/08 02:04:50;;;;;;;7.82;7.20;;;;;;;;;;4902566;29;20044;-68
2022/08/08 02:07:21;;;;;;;8.02;7.32;;;;;;;;;;4907332;29;20653;-68
2022/08/08 02:10:15;;;;;;;7.35;6.85;;;;;;;;;;4945435;28;20041;-68
2022/08/08 02:12:50;;;;;;;8.05;7.35;;;;;;;;;;4918737;29;20043;-68
2022/08/08 02:15:25;;;;;;;7.07;6.57;;;;;;;;;;4913736;29;20027;-68
2022/08/08 02:18:08;;;;;;;6.75;6.15;;;;;;;;;;4929928;28;20044;-68
2022/08/08 02:22:30;;;;;;;8.02;7.32;;;;;;;;;;4920682;29;20438;-68
2022/08/08 02:23:37;;;;;;;6.68;6.18;;;;;;;;;;4928252;28;20044;-67
2022/08/08 02:26:10;;;;;;;7.57;6.97;;;;;;;;;;4931186;28;20024;-67
2022/08/08 02:28:54;;;;;;;8.43;7.82;;;;;;;;;;4936468;28;20597;-67
2022/08/08 02:31:39;;;;;;;8.93;8.23;;;;;;;;;;4934984;28;20174;-68
2022/08/08 02:34:10;;;;;;;7.60;7.03;;;;;;;;;;4936081;28;20681;-68
2022/08/08 02:36:42;;;;;;;7.30;6.63;;;;;;;;;;4935113;28;20086;-68
2022/08/08 02:39:16;;;;;;;7.43;6.80;;;;;;;;;;4931115;28;20079;-67
2022/08/08 02:41:41;;;;;;;7.80;6.80;;;;;;;;;;4930017;28;20034;-67
2022/08/08 02:44:06;;;;;;;7.50;6.90;;;;;;;;;;4928727;28;20027;-68
2022/08/08 02:46:37;;;;;;;7.07;6.47;;;;;;;;;;4932410;28;20066;-68
2022/08/08 02:49:05;;;;;;;6.50;5.97;;;;;;;;;;4950835;28;20153;-67
2022/08/08 02:51:42;;;;;;;7.78;7.07;;;;;;;;;;4978508;28;20425;-69
2022/08/08 02:54:20;;;;;;;8.45;7.30;;;;;;;;;;4979834;28;20034;-69
2022/08/08 02:57:21;;;;;;;10.02;7.07;;;;;;;;;;4978286;28;20042;-67
2022/08/08 03:00:09;;;;;;;8.07;7.53;;;;;;;;;;4900666;29;20159;-68
2022/08/08 03:02:37;;;;;;;9.48;8.50;;;;;;;;;;4901727;29;20048;-67
2022/08/08 03:05:21;;;;;;;9.02;8.30;;;;;;;;;;4901510;29;20062;-67
2022/08/08 03:07:46;;;;;;;8.63;7.93;;;;;;;;;;4902612;29;20122;-67
2022/08/08 03:10:32;;;;;;;9.02;8.15;;;;;;;;;;4903049;29;20537;-68
2022/08/08 03:12:57;;;;;;;;;;;;;;;;;;4865570;29;20468;-66
2022/08/08 03:15:31;;;;;;;9.27;8.50;;;;;;;;;;4902205;29;20047;-67
2022/08/08 03:18:02;;;;;;;8.63;8.02;;;;;;;;;;4908486;29;20520;-67
2022/08/08 03:20:49;;;;;;;7.72;7.15;;;;;;;;;;4891842;29;20040;-68
2022/08/08 03:23:16;;;;;;;8.05;7.35;;;;;;;;;;4901903;29;20126;-67
2022/08/08 03:25:43;;;;;;;8.77;8.07;;;;;;;;;;4901032;29;20036;-68
2022/08/08 03:28:11;;;;;;;8.07;7.32;;;;;;;;;;4886497;29;20036;-68
2022/08/08 03:30:37;;;;;;;7.70;7.07;;;;;;;;;;4902329;29;20034;-67
2022/08/08 03:33:17;;;;;;;7.50;6.90;;;;;;;;;;4914262;28;20043;-68
2022/08/08 03:35:44;;;;;;;8.13;7.57;;;;;;;;;;4977776;28;20030;-68
2022/08/08 03:38:10;;;;;;;7.88;7.35;;;;;;;;;;4978506;28;20045;-69
2022/08/08 03:40:35;;;;;;;8.75;7.93;;;;;;;;;;4980813;28;20515;-69
2022/08/08 03:43:00;;;;;;;9.88;8.63;;;;;;;;;;4976898;28;20032;-68
2022/08/08 03:45:27;;;;;;;9.32;8.63;;;;;;;;;;4977579;28;20133;-67
2022/08/08 03:48:04;;;;;;;9.32;8.30;;;;;;;;;;4977102;28;20026;-68
2022/08/08 03:50:30;;;;;;;8.48;7.88;;;;;;;;;;4977522;28;20019;-68
2022/08/08 03:52:55;;;;;;;8.18;7.47;;;;;;;;;;4977493;28;20205;-69
2022/08/08 03:55:21;;;;;;;8.80;8.10;;;;;;;;;;4979635;28;20464;-69
2022/08/08 03:57:48;;;;;;;8.80;8.10;;;;;;;;;;4976946;28;20019;-68
2022/08/08 04:00:15;;;;;;;7.75;7.15;;;;;;;;;;4978001;28;20026;-67
2022/08/08 04:02:41;;;;;;;7.43;6.72;;;;;;;;;;4975583;28;20037;-68
2022/08/08 04:05:06;;;;;;;7.25;6.57;;;;;;;;;;4977663;28;20019;-68
2022/08/08 04:07:36;;;;;;;6.80;6.20;;;;;;;;;;4976255;28;20034;-68
2022/08/08 04:10:01;;;;;;;6.45;5.95;;;;;;;;;;4977289;28;20066;-69
2022/08/08 04:12:26;;;;;;;6.50;6.00;;;;;;;;;;4980610;28;20138;-69
2022/08/08 04:14:51;;;;;;;6.22;5.82;;;;;;;;;;4975989;28;20439;-69
2022/08/08 04:17:17;;;;;;;9.02;6.68;;;;;;;;;;4978648;28;20034;-69
2022/08/08 04:19:42;;;;;;;6.45;5.95;;;;;;;;;;4980690;28;20030;-69
2022/08/08 04:22:07;;;;;;;6.80;6.05;;;;;;;;;;4981100;28;20085;-69
2022/08/08 04:24:32;;;;;;;7.00;6.40;;;;;;;;;;4981803;28;20517;-70
2022/08/08 04:26:58;;;;;;;7.03;6.53;;;;;;;;;;4980134;28;20133;-69
2022/08/08 04:29:23;;;;;;;6.28;5.85;;;;;;;;;;4993101;28;20575;-67
2022/08/08 04:31:48;;;;;;;6.78;6.18;;;;;;;;;;5000108;28;20030;-67
2022/08/08 04:34:13;;;;;;;7.35;6.75;;;;;;;;;;4999866;28;20089;-68
2022/08/08 04:36:39;;;;;;;6.63;5.97;;;;;;;;;;4983298;28;20101;-68
2022/08/08 04:39:04;;;;;;;5.88;5.30;;;;;;;;;;4999431;28;20036;-67
2022/08/08 04:41:29;;;;;;;6.50;5.90;;;;;;;;;;4988642;28;20528;-67
2022/08/08 04:43:54;;;;;;;5.63;5.13;;;;;;;;;;5002595;28;20399;-68
2022/08/08 04:46:20;;;;;;;5.90;5.30;;;;;;;;;;4998916;28;20462;-68
2022/08/08 04:48:45;;;;;;;5.45;4.90;;;;;;;;;;5001891;28;20541;-68
2022/08/08 04:51:10;;;;;;;5.95;5.45;;;;;;;;;;4986376;28;20045;-68
2022/08/08 04:53:36;;;;;;;5.15;4.70;;;;;;;;;;4970590;28;20025;-68
2022/08/08 04:56:01;;;;;;;5.07;4.65;;;;;;;;;;5003418;28;20097;-68
2022/08/08 04:58:26;;;;;;;5.18;4.88;;;;;;;;;;4999942;28;20080;-68
2022/08/08 05:00:52;;;;;;;6.03;5.63;;;;;;;;;;4988681;28;20022;-68
2022/08/08 05:03:17;;;;;;;11.57;8.43;;;;;;;;;;5002575;28;20017;-69
2022/08/08 05:05:43;;;;;;;6.38;5.78;;;;;;;;;;5000006;28;20053;-68
2022/08/08 05:08:09;;;;;;;5.75;5.18;;;;;;;;;;4998938;28;20476;-68
2022/08/08 05:10:34;;;;;;;5.40;5.00;;;;;;;;;;4983912;28;20030;-68
2022/08/08 05:13:01;;;;;;;6.15;4.88;;;;;;;;;;5001476;28;20033;-69
2022/08/08 05:15:26;;;;;;;5.30;4.80;;;;;;;;;;5000272;28;20084;-68
2022/08/08 05:17:51;;;;;;;6.38;4.32;;;;;;;;;;5000637;28;20030;-63
2022/08/08 05:20:17;;;;;;;4.85;4.55;;;;;;;;;;4999247;28;20113;-64
2022/08/08 05:22:42;;;;;;;5.22;4.18;;;;;;;;;;4998810;28;20029;-67
2022/08/08 05:25:07;;;;;;;5.55;4.35;;;;;;;;;;4981609;28;20256;-66
2022/08/08 05:27:33;;;;;;;4.55;4.20;;;;;;;;;;4999983;28;20022;-64
2022/08/08 05:29:58;;;;;;;4.60;4.30;;;;;;;;;;4995636;28;20708;-64
2022/08/08 05:32:23;;;;;;;4.45;4.20;;;;;;;;;;5005372;28;20042;-64
2022/08/08 05:34:50;;;;;;;4.63;4.30;;;;;;;;;;4982480;28;20395;-64
2022/08/08 05:37:22;;;;;;;4.38;3.97;;;;;;;;;;4999939;28;20101;-65
2022/08/08 05:39:51;;;;;;;4.53;3.83;;;;;;;;;;5001225;28;20030;-64
2022/08/08 05:42:16;;;;;;;4.72;4.25;;;;;;;;;;4998850;28;20033;-64
2022/08/08 05:44:46;;;;;;;4.10;3.70;;;;;;;;;;4982548;28;20030;-64
2022/08/08 05:47:12;;;;;;;3.63;3.42;;;;;;;;;;4998762;28;20034;-64
2022/08/08 05:49:37;;;;;;;4.18;3.78;;;;;;;;;;4996912;28;20044;-64
2022/08/08 05:52:02;;;;;;;5.65;3.60;;;;;;;;;;4998053;28;20030;-67
2022/08/08 05:54:27;;;;;;;4.28;3.88;;;;;;;;;;4999386;28;20488;-67
2022/08/08 05:56:54;;;;;;;5.93;3.50;;;;;;;;;;5001305;28;20044;-68
2022/08/08 05:59:20;;;;;;;4.00;3.60;;;;;;;;;;4980318;28;20479;-67
2022/08/08 06:01:55;;;;;;;3.75;3.42;;;;;;;;;;5000782;28;20025;-66
2022/08/08 06:04:20;;;;;;;;;;;;;;;;;;5000439;28;20417;-65
2022/08/08 06:06:47;;;;;;;3.83;3.53;;;;;;;;;;4997525;28;20454;-66
2022/08/08 06:09:14;;;;;;;3.60;3.30;;;;;;;;;;4998589;28;20033;-67
2022/08/08 06:11:41;;;;;;;6.20;4.47;;;;;;;;;;5002758;28;20026;-69
2022/08/08 06:14:08;;;;;;;6.22;4.20;;;;;;;;;;5005097;28;20018;-68
2022/08/08 06:16:35;;;;;;;3.80;3.50;;;;;;;;;;5000759;28;20548;-69
2022/08/08 06:19:01;;;;;;;6.00;3.80;;;;;;;;;;4998353;28;20637;-69
2022/08/08 06:21:26;;;;;;;4.28;3.80;;;;;;;;;;4997380;28;20066;-63
2022/08/08 06:23:51;;;;;;;8.30;4.03;;;;;;;;;;5001795;28;20025;-65
2022/08/08 06:26:17;;;;;;;4.25;3.40;;;;;;;;;;5000953;28;20037;-61
2022/08/08 06:28:48;;;;;;;4.10;3.80;;;;;;;;;;4997337;28;20058;-67
2022/08/08 06:31:16;;;;;;;4.72;4.35;;;;;;;;;;4997299;28;20137;-68
2022/08/08 06:33:47;;;;;;;6.18;3.50;;;;;;;;;;4997055;28;20037;-68
2022/08/08 06:36:17;;;;;;;4.47;3.75;;;;;;;;;;5003670;28;20029;-66
2022/08/08 06:38:45;;;;;;;3.72;3.42;;;;;;;;;;5004467;28;20030;-67
2022/08/08 06:41:11;;;;;;;4.30;3.25;;;;;;;;;;5004060;28;20109;-66
2022/08/08 06:43:39;;;;;;;4.07;3.67;;;;;;;;;;4998664;28;20585;-61
2022/08/08 06:46:05;;;;;;;3.70;3.45;;;;;;;;;;5002460;28;20107;-67
2022/08/08 06:48:31;;;;;;;3.53;3.22;;;;;;;;;;5005829;28;20152;-67
2022/08/08 06:50:56;;;;;;;3.85;3.58;;;;;;;;;;5005633;28;20088;-68
2022/08/08 06:53:21;;;;;;;3.42;3.13;;;;;;;;;;4987664;28;20500;-68
2022/08/08 06:55:47;;;;;;;3.33;3.13;;;;;;;;;;4998851;28;20030;-67
2022/08/08 06:58:12;;;;;;;3.22;2.90;;;;;;;;;;4995787;28;20030;-67
2022/08/08 07:00:39;;;;;;;4.43;3.75;;;;;;;;;;5001953;28;20045;-68
2022/08/08 07:03:07;;;;;;;4.32;3.70;;;;;;;;;;4996338;28;20034;-68
2022/08/08 07:05:36;;;;;;;3.65;3.35;;;;;;;;;;4995527;28;20030;-68
2022/08/08 07:08:11;;;;;;;3.45;3.10;;;;;;;;;;4996902;28;20034;-67
2022/08/08 07:10:37;;;;;;;4.07;3.58;;;;;;;;;;4998519;28;20513;-68
2022/08/08 07:13:03;;;;;;;3.65;3.35;;;;;;;;;;5003303;28;20022;-68
2022/08/08 07:15:32;;;;;;;7.25;3.78;;;;;;;;;;5004536;28;20510;-69
2022/08/08 07:18:04;;;;;;;4.15;3.70;;;;;;;;;;4998228;28;20578;-68
2022/08/08 07:20:30;;;;;;;3.47;3.15;;;;;;;;;;4974254;28;20030;-68
2022/08/08 07:23:08;;;;;;;3.60;3.30;;;;;;;;;;4995544;28;20021;-68
2022/08/08 07:25:37;;;;;;;3.92;3.03;;;;;;;;;;4996047;28;20033;-68
2022/08/08 07:28:07;;;;;;;3.75;3.50;;;;;;;;;;5000519;28;20026;-69
2022/08/08 07:30:33;;;;;;;4.60;2.95;;;;;;;;;;4997697;28;20471;-68
2022/08/08 07:32:58;;;;;;;3.90;3.30;;;;;;;;;;4995621;28;20041;-68
2022/08/08 07:35:24;;;;;;;3.92;3.72;;;;;;;;;;5004552;28;20491;-68
2022/08/08 07:37:50;;;;;;;5.32;3.60;;;;;;;;;;5006550;28;20031;-68
2022/08/08 07:40:16;;;;;;;6.35;3.75;;;;;;;;;;5003497;28;20530;-68
2022/08/08 07:42:41;;;;;;;4.03;3.72;;;;;;;;;;4981388;28;20026;-69
2022/08/08 07:45:07;;;;;;;3.95;3.60;;;;;;;;;;4983342;28;20495;-68
2022/08/08 07:47:32;;;;;;;4.05;3.75;;;;;;;;;;4982267;28;20040;-68
2022/08/08 07:49:57;;;;;;;9.75;4.60;;;;;;;;;;4997103;28;20029;-68
2022/08/08 07:52:23;;;;;;;5.22;4.75;;;;;;;;;;4998879;28;20464;-68
2022/08/08 07:54:54;;;;;;;5.07;4.45;;;;;;;;;;4995866;28;20474;-68
2022/08/08 07:57:20;;;;;;;5.22;4.72;;;;;;;;;;4999891;28;20014;-66
2022/08/08 07:59:53;;;;;;;5.38;4.90;;;;;;;;;;4995605;28;20037;-66
2022/08/08 08:02:25;;;;;;;8.75;5.88;;;;;;;;;;4999380;28;20018;-66
2022/08/08 08:04:54;;;;;;;6.18;5.57;;;;;;;;;;4995676;28;20068;-66
2022/08/08 08:07:21;;;;;;;7.80;4.85;;;;;;;;;;4995490;28;20080;-67
2022/08/08 08:09:46;;;;;;;5.10;4.70;;;;;;;;;;4997228;28;20116;-67
2022/08/08 08:12:12;;;;;;;5.85;5.30;;;;;;;;;;4966026;28;20448;-67
2022/08/08 08:14:43;;;;;;;5.63;5.03;;;;;;;;;;4995830;28;20018;-65
2022/08/08 08:17:08;;;;;;;6.13;5.63;;;;;;;;;;4996732;28;20030;-66
2022/08/08 08:19:35;;;;;;;6.95;5.28;;;;;;;;;;4994231;28;20069;-65
2022/08/08 08:22:00;;;;;;;6.00;5.47;;;;;;;;;;4996005;28;20476;-66
2022/08/08 08:24:26;;;;;;;7.97;5.97;;;;;;;;;;4999404;28;20041;-64
2022/08/08 08:26:51;;;;;;;8.98;7.18;;;;;;;;;;4996905;28;20022;-66
2022/08/08 08:29:16;;;;;;;8.27;6.65;;;;;;;;;;4996976;28;20157;-65
2022/08/08 08:31:42;;;;;;;8.02;7.30;;;;;;;;;;4981136;28;20096;-65
2022/08/08 08:34:07;;;;;;;8.93;8.02;;;;;;;;;;4996879;28;20120;-70
2022/08/08 08:36:32;;;;;;;8.00;7.25;;;;;;;;;;4997081;28;20132;-62
2022/08/08 08:38:57;;;;;;;8.02;7.32;;;;;;;;;;4996848;28;20034;-67
2022/08/08 08:41:23;;;;;;;9.48;8.10;;;;;;;;;;4999506;28;20100;-68
2022/08/08 08:43:48;;;;;;;8.68;7.88;;;;;;;;;;4996464;28;20088;-64
2022/08/08 08:46:13;;;;;;;11.73;7.57;;;;;;;;;;4999290;28;20038;-66
2022/08/08 08:48:42;;;;;;;8.27;7.68;;;;;;;;;;4995572;28;20026;-65
2022/08/08 08:51:10;;;;;;;7.03;6.53;;;;;;;;;;4995490;28;20018;-65
2022/08/08 08:53:37;;;;;;;9.07;8.23;;;;;;;;;;5000883;28;20113;-66
2022/08/08 08:56:02;;;;;;;8.15;7.35;;;;;;;;;;4996852;28;20468;-66
2022/08/08 08:58:46;;;;;;;6.80;6.28;;;;;;;;;;4998416;28;20600;-66
2022/08/08 09:01:16;;;;;;;10.48;7.95;;;;;;;;;;4996192;28;20581;-66
2022/08/08 09:03:43;;;;;;;6.95;6.45;;;;;;;;;;4999279;28;20033;-66
2022/08/08 09:06:12;;;;;;;9.05;8.23;;;;;;;;;;5003693;28;20026;-66
2022/08/08 09:08:38;;;;;;;7.88;7.28;;;;;;;;;;4998374;28;20112;-66
2022/08/08 09:11:05;;;;;;;10.48;7.05;;;;;;;;;;5004860;28;20049;-65
2022/08/08 09:13:31;;;;;;;6.68;5.88;;;;;;;;;;5005980;28;20030;-66
2022/08/08 09:15:57;;;;;;;6.35;5.68;;;;;;;;;;4998921;28;20034;-66
2022/08/08 09:18:22;;;;;;;5.60;4.72;;;;;;;;;;4999763;28;20041;-65
2022/08/08 09:20:48;;;;;;;5.97;5.40;;;;;;;;;;5000106;28;20041;-65
2022/08/08 09:23:14;;;;;;;5.35;4.82;;;;;;;;;;5003262;28;20028;-65
2022/08/08 09:25:48;;;;;;;5.38;4.97;;;;;;;;;;4999722;28;20030;-66
2022/08/08 09:28:14;;;;;;;4.63;4.22;;;;;;;;;;5002945;28;20161;-66
2022/08/08 09:30:41;;;;;;;4.95;4.50;;;;;;;;;;4986724;28;20022;-67
2022/08/08 09:33:08;;;;;;;8.00;4.47;;;;;;;;;;5000151;28;20022;-67
2022/08/08 09:35:35;;;;;;;5.18;4.78;;;;;;;;;;4997644;28;20026;-66
2022/08/08 09:38:01;;;;;;;4.50;4.15;;;;;;;;;;4999605;28;20025;-68
2022/08/08 09:40:28;;;;;;;5.75;5.28;;;;;;;;;;4999300;28;20091;-67
2022/08/08 09:43:12;;;;;;;6.07;4.65;;;;;;;;;;5001794;28;20030;-68
2022/08/08 09:45:40;;;;;;;9.82;5.03;;;;;;;;;;4999512;28;20098;-68
2022/08/08 09:48:07;;;;;;;5.13;4.68;;;;;;;;;;5000702;28;20060;-68
2022/08/08 09:50:33;;;;;;;4.65;4.30;;;;;;;;;;4998616;28;20550;-70
2022/08/08 09:53:01;;;;;;;4.70;4.35;;;;;;;;;;4999135;28;20030;-71
2022/08/08 09:55:29;;;;;;;5.90;4.47;;;;;;;;;;5005197;28;20096;-69
2022/08/08 09:58:03;;;;;;;4.63;4.20;;;;;;;;;;4999244;28;20026;-69
2022/08/08 10:00:30;;;;;;;4.60;3.78;;;;;;;;;;4998460;28;20033;-70
2022/08/08 10:02:56;;;;;;;4.28;3.65;;;;;;;;;;5001555;28;20057;-70
2022/08/08 10:05:24;;;;;;;4.53;3.40;;;;;;;;;;4998534;28;20155;-69
2022/08/08 10:07:50;;;;;;;4.57;3.90;;;;;;;;;;4998333;28;20038;-69
2022/08/08 10:10:24;;;;;;;3.67;3.22;;;;;;;;;;4996601;28;20072;-69
2022/08/08 10:12:49;;;;;;;3.65;3.38;;;;;;;;;;4998391;28;20030;-71
2022/08/08 10:15:15;;;;;;;3.40;3.05;;;;;;;;;;4997185;28;20124;-69
2022/08/08 10:17:47;;;;;;;3.92;3.60;;;;;;;;;;4998654;28;20038;-71
2022/08/08 10:20:13;;;;;;;3.83;3.53;;;;;;;;;;5002105;28;20117;-71
2022/08/08 10:22:42;;;;;;;4.82;3.55;;;;;;;;;;4999021;28;20105;-72
2022/08/08 10:25:07;;;;;;;3.28;2.92;;;;;;;;;;5000930;28;20435;-69
2022/08/08 10:27:42;;;;;;;3.80;3.50;;;;;;;;;;4998407;28;20747;-69
2022/08/08 10:30:08;;;;;;;3.00;2.80;;;;;;;;;;5001477;28;20523;-69
2022/08/08 10:32:42;;;;;;;4.88;3.88;;;;;;;;;;4998863;28;20034;-70
2022/08/08 10:35:12;;;;;;;4.28;3.05;;;;;;;;;;4980343;28;20053;-73
2022/08/08 10:37:40;;;;;;;2.92;2.83;;;;;;;;;;4995757;28;20124;-68
2022/08/08 10:40:13;;;;;;;3.83;3.03;;;;;;;;;;4997401;28;20412;-67
2022/08/08 10:42:39;;;;;;;2.75;2.55;;;;;;;;;;4998916;28;20026;-68
2022/08/08 10:45:05;;;;;;;3.00;2.75;;;;;;;;;;4981871;28;20140;-68
2022/08/08 10:47:31;;;;;;;4.25;2.88;;;;;;;;;;4986360;28;20527;-66
2022/08/08 10:49:57;;;;;;;3.33;3.13;;;;;;;;;;4980121;28;20042;-66
2022/08/08 10:52:27;;;;;;;3.50;3.17;;;;;;;;;;4997409;28;20018;-65
2022/08/08 10:54:56;;;;;;;4.07;2.90;;;;;;;;;;4994442;28;20046;-64
2022/08/08 10:57:22;;;;;;;3.20;2.83;;;;;;;;;;4997915;28;20029;-63
2022/08/08 10:59:51;;;;;;;3.88;3.22;;;;;;;;;;5004372;28;20037;-64
2022/08/08 11:02:22;;;;;;;4.07;2.95;;;;;;;;;;5002316;28;20053;-65
2022/08/08 11:04:47;;;;;;;2.95;2.75;;;;;;;;;;4996483;28;20909;-64
2022/08/08 11:07:22;;;;;;;2.33;2.22;;;;;;;;;;5000438;28;20022;-65
2022/08/08 11:09:47;;;;;;;2.92;2.65;;;;;;;;;;4996395;28;20844;-65
2022/08/08 11:12:13;;;;;;;2.63;2.42;;;;;;;;;;4996508;28;20022;-65
2022/08/08 11:14:48;;;;;;;2.38;1.98;;;;;;;;;;4996254;28;20499;-66
2022/08/08 11:17:13;;;;;;;3.50;2.42;;;;;;;;;;5000799;28;20045;-65
2022/08/08 11:19:38;;;;;;;2.53;2.33;;;;;;;;;;4979327;28;20513;-64
2022/08/08 11:22:05;;;;;;;2.47;2.28;;;;;;;;;;4996930;28;20038;-65
2022/08/08 11:24:32;;;;;;;2.67;2.22;;;;;;;;;;4973088;28;20026;-66
2022/08/08 11:26:59;;;;;;;4.22;3.28;;;;;;;;;;4995559;28;20196;-67
2022/08/08 11:29:25;;;;;;;2.53;2.35;;;;;;;;;;4995686;28;20063;-65
2022/08/08 11:31:52;;;;;;;2.72;2.53;;;;;;;;;;4996530;28;20049;-69
2022/08/08 11:34:18;;;;;;;2.72;2.53;;;;;;;;;;4999119;28;20028;-69
2022/08/08 11:36:43;;;;;;;3.30;2.33;;;;;;;;;;4997594;28;20013;-69
2022/08/08 11:39:10;;;;;;;2.92;2.72;;;;;;;;;;4996717;28;20076;-69
2022/08/08 11:41:35;;;;;;;2.75;2.28;;;;;;;;;;4996770;28;20431;-68
2022/08/08 11:44:01;;;;;;;2.92;2.63;;;;;;;;;;4998105;28;20029;-68
2022/08/08 11:46:27;;;;;;;2.30;2.20;;;;;;;;;;5000238;28;20026;-69
2022/08/08 11:48:53;;;;;;;2.72;2.53;;;;;;;;;;4998817;28;20458;-66
2022/08/08 11:51:20;;;;;;;2.47;2.25;;;;;;;;;;4995951;28;20028;-67
2022/08/08 11:53:46;;;;;;;2.50;2.30;;;;;;;;;;4999953;28;20413;-68
2022/08/08 11:56:21;;;;;;;2.33;2.08;;;;;;;;;;4995194;28;20323;-67
2022/08/08 11:58:46;;;;;;;;;;;;;;;;;;4984457;28;20816;-67
2022/08/08 12:01:31;;;;;;;2.63;2.45;;;;;;;;;;4995813;28;19909;-60
2022/08/08 12:03:57;;;;;;;2.60;2.40;;;;;;;;;;4976741;28;20440;-67
2022/08/08 12:06:23;;;;;;;4.45;2.90;;;;;;;;;;4994950;28;20021;-67
2022/08/08 12:08:50;;;;;;;2.50;2.30;;;;;;;;;;4983473;28;20022;-69
2022/08/08 12:11:17;;;;;;;3.40;2.30;;;;;;;;;;5003799;28;20968;-68
2022/08/08 12:13:43;;;;;;;3.00;2.55;;;;;;;;;;5002019;28;20018;-69
2022/08/08 12:16:09;;;;;;;3.60;3.00;;;;;;;;;;4996580;28;20581;-69
2022/08/08 12:18:43;;;;;;;3.95;2.83;;;;;;;;;;4998762;28;20018;-70
2022/08/08 12:21:18;;;;;;;5.93;3.08;;;;;;;;;;4995420;28;20038;-70
2022/08/08 12:23:43;;;;;;;;;;;;;;;;;;4998102;28;20034;-68
2022/08/08 12:26:10;;;;;;;3.95;2.88;;;;;;;;;;5001369;28;20117;-69
2022/08/08 12:28:35;;;;;;;2.72;2.50;;;;;;;;;;4995536;28;20100;-68
2022/08/08 12:31:06;;;;;;;3.70;3.15;;;;;;;;;;4996547;28;20449;-69
2022/08/08 12:33:32;;;;;;;5.45;2.60;;;;;;;;;;4979542;28;20553;-68
2022/08/08 12:36:09;;;;;;;2.28;2.17;;;;;;;;;;4997193;28;20030;-69
2022/08/08 12:38:44;;;;;;;2.97;2.67;;;;;;;;;;5004673;28;20474;-70
2022/08/08 12:41:11;;;;;;;3.35;3.08;;;;;;;;;;5000010;28;20033;-69
2022/08/08 12:43:36;;;;;;;3.15;2.85;;;;;;;;;;5001337;28;20041;-69
2022/08/08 12:46:12;;;;;;;2.78;2.58;;;;;;;;;;5000650;28;20026;-60
2022/08/08 12:48:37;;;;;;;3.58;2.78;;;;;;;;;;4998716;28;20044;-69
2022/08/08 12:51:02;;;;;;;3.38;3.08;;;;;;;;;;5003915;28;20305;-69
2022/08/08 12:53:29;;;;;;;3.33;2.85;;;;;;;;;;4999907;28;20026;-69
2022/08/08 12:55:58;;;;;;;2.72;2.53;;;;;;;;;;5005482;28;20059;-69
2022/08/08 12:58:26;;;;;;;3.13;2.75;;;;;;;;;;5005524;28;20064;-69
2022/08/08 13:00:52;;;;;;;2.90;2.75;;;;;;;;;;5005569;28;20093;-70
2022/08/08 13:03:27;;;;;;;3.40;3.10;;;;;;;;;;5004119;28;20407;-69
2022/08/08 13:06:11;;;;;;;3.45;3.03;;;;;;;;;;5004672;28;20096;-68
2022/08/08 13:08:55;;;;;;;3.60;3.17;;;;;;;;;;4998801;28;20519;-68
2022/08/08 13:11:20;;;;;;;3.47;3.23;;;;;;;;;;4995573;28;20657;-68
2022/08/08 13:13:50;;;;;;;4.05;3.22;;;;;;;;;;4999245;28;20028;-69
2022/08/08 13:16:19;;;;;;;3.90;3.60;;;;;;;;;;5002314;28;20029;-69
2022/08/08 13:18:46;;;;;;;3.72;3.42;;;;;;;;;;5006228;28;20084;-69
2022/08/08 13:21:14;;;;;;;4.25;3.95;;;;;;;;;;4975108;28;20567;-68
2022/08/08 13:23:39;;;;;;;4.10;3.80;;;;;;;;;;5009449;28;20032;-69
2022/08/08 13:26:09;;;;;;;6.10;4.32;;;;;;;;;;5005171;28;20026;-68
2022/08/08 13:28:34;;;;;;;5.13;4.78;;;;;;;;;;4979233;28;20054;-67
2022/08/08 13:31:03;;;;;;;4.75;4.35;;;;;;;;;;4981080;28;20033;-69
2022/08/08 13:33:29;;;;;;;4.65;4.13;;;;;;;;;;4977895;28;20476;-68
2022/08/08 13:35:54;;;;;;;4.45;3.83;;;;;;;;;;4981233;28;20509;-70
2022/08/08 13:38:20;;;;;;;4.35;4.00;;;;;;;;;;4978692;28;20443;-69
2022/08/08 13:40:45;;;;;;;4.68;4.28;;;;;;;;;;4978546;28;20031;-69
2022/08/08 13:43:11;;;;;;;5.55;4.80;;;;;;;;;;4979065;28;20026;-71
2022/08/08 13:45:37;;;;;;;8.25;4.88;;;;;;;;;;4978823;28;20023;-67
2022/08/08 13:48:07;;;;;;;5.45;4.20;;;;;;;;;;4976953;28;20023;-65
2022/08/08 13:50:33;;;;;;;4.45;3.97;;;;;;;;;;4976102;28;20031;-65
2022/08/08 13:52:58;;;;;;;4.18;3.88;;;;;;;;;;4975788;28;20112;-64
2022/08/08 13:55:26;;;;;;;5.18;4.75;;;;;;;;;;4978075;28;20034;-64
2022/08/08 13:57:51;;;;;;;6.03;4.10;;;;;;;;;;4979782;28;20388;-67
2022/08/08 14:00:20;;;;;;;4.65;4.25;;;;;;;;;;4977514;28;20058;-68
2022/08/08 14:02:58;;;;;;;4.47;4.07;;;;;;;;;;4981396;28;20349;-68
2022/08/08 14:05:33;;;;;;;3.65;3.22;;;;;;;;;;4978296;28;20030;-67
2022/08/08 14:07:58;;;;;;;4.88;4.20;;;;;;;;;;4982554;28;20383;-70
2022/08/08 14:10:24;;;;;;;4.88;3.80;;;;;;;;;;4984266;28;20053;-70
2022/08/08 14:12:50;;;;;;;4.30;4.00;;;;;;;;;;4975646;28;20082;-70
2022/08/08 14:15:25;;;;;;;4.20;3.90;;;;;;;;;;4978550;28;20026;-68
2022/08/08 14:17:57;;;;;;;4.43;4.13;;;;;;;;;;4978268;28;20037;-69
2022/08/08 14:20:36;;;;;;;3.75;3.40;;;;;;;;;;4977009;28;20444;-69
2022/08/08 14:23:08;;;;;;;3.55;3.35;;;;;;;;;;4981036;28;20081;-68
2022/08/08 14:25:52;;;;;;;4.60;4.20;;;;;;;;;;4978430;28;20045;-69
2022/08/08 14:28:17;;;;;;;5.30;4.05;;;;;;;;;;4978580;28;20054;-69
2022/08/08 14:30:43;;;;;;;5.53;4.15;;;;;;;;;;4978538;28;20507;-68
2022/08/08 14:33:10;;;;;;;5.38;4.95;;;;;;;;;;4994984;28;20042;-68
2022/08/08 14:35:35;;;;;;;4.53;4.13;;;;;;;;;;4977547;28;20096;-67
2022/08/08 14:38:02;;;;;;;4.40;4.00;;;;;;;;;;4979348;28;20113;-69
2022/08/08 14:40:27;;;;;;;4.30;3.88;;;;;;;;;;4981730;28;20617;-71
2022/08/08 14:42:54;;;;;;;4.00;3.70;;;;;;;;;;4978066;28;20054;-70
2022/08/08 14:45:20;;;;;;;4.40;3.80;;;;;;;;;;4971761;28;20022;-69
2022/08/08 14:48:00;;;;;;;4.25;3.83;;;;;;;;;;4974014;28;20097;-70
2022/08/08 14:50:27;;;;;;;4.65;4.25;;;;;;;;;;4977654;28;20033;-68
2022/08/08 14:52:57;;;;;;;5.20;4.32;;;;;;;;;;4970794;28;20049;-69
2022/08/08 14:55:23;;;;;;;4.68;4.28;;;;;;;;;;4975973;28;20352;-69
2022/08/08 14:57:49;;;;;;;5.10;4.70;;;;;;;;;;4981008;28;20481;-69